sensor_id;sensor_type;location;lat;lon;timestamp;temperature;humidity
20349;DHT22;10332;50.208;18.988;2023-08-08T00:02:11;14.90;99.90
20349;DHT22;10332;50.208;18.988;2023-08-08T00:04:38;14.80;99.90
20349;DHT22;10332;50.208;18.988;2023-08-08T00:07:06;14.80;99.90
20349;DHT22;10332;50.208;18.988;2023-08-08T00:09:34;14.80;99.90
20349;DHT22;10332;50.208;18.988;2023-08-08T00:12:01;14.80;99.90
20349;DHT22;10332;50.208;18.988;2023-08-08T00:14:29;14.80;99.90
20349;DHT22;10332;50.208;18.988;2023-08-08T00:16:56;14.80;99.90
20349;DHT22;10332;50.208;18.988;2023-08-08T00:19:24;14.80;99.90
20349;DHT22;10332;50.208;18.988;2023-08-08T00:21:51;14.80;99.90
20349;DHT22;10332;50.208;18.988;2023-08-08T00:24:19;14.80;99.90
20349;DHT22;10332;50.208;18.988;2023-08-08T00:26:46;14.80;99.90
20349;DHT22;10332;50.208;18.988;2023-08-08T00:29:14;14.80;99.90
20349;DHT22;10332;50.208;18.988;2023-08-08T00:31:41;14.80;99.90
20349;DHT22;10332;50.208;18.988;2023-08-08T00:34:08;14.80;99.90
20349;DHT22;10332;50.208;18.988;2023-08-08T00:36:36;14.80;99.90
20349;DHT22;10332;50.208;18.988;2023-08-08T00:39:03;14.70;99.90
20349;DHT22;10332;50.208;18.988;2023-08-08T00:41:31;14.70;99.90
20349;DHT22;10332;50.208;18.988;2023-08-08T00:43:58;14.70;99.90
20349;DHT22;10332;50.208;18.988;2023-08-08T00:46:26;14.70;99.90
20349;DHT22;10332;50.208;18.988;2023-08-08T00:48:54;14.70;99.90
20349;DHT22;10332;50.208;18.988;2023-08-08T00:51:23;14.70;99.90
20349;DHT22;10332;50.208;18.988;2023-08-08T00:53:52;14.60;99.90
20349;DHT22;10332;50.208;18.988;2023-08-08T00:56:20;14.60;99.90
20349;DHT22;10332;50.208;18.988;2023-08-08T00:58:48;14.70;99.90
20349;DHT22;10332;50.208;18.988;2023-08-08T01:01:18;14.70;99.90
20349;DHT22;10332;50.208;18.988;2023-08-08T01:03:46;14.60;99.90
20349;DHT22;10332;50.208;18.988;2023-08-08T01:06:43;14.60;99.90
20349;DHT22;10332;50.208;18.988;2023-08-08T01:09:48;14.60;99.90
20349;DHT22;10332;50.208;18.988;2023-08-08T01:12:18;14.60;99.90
20349;DHT22;10332;50.208;18.988;2023-08-08T01:14:47;14.50;99.90
20349;DHT22;10332;50.208;18.988;2023-08-08T01:17:15;14.50;99.90
20349;DHT22;10332;50.208;18.988;2023-08-08T01:19:43;14.50;99.90
20349;DHT22;10332;50.208;18.988;2023-08-08T01:22:22;14.50;99.90
20349;DHT22;10332;50.208;18.988;2023-08-08T01:24:53;14.40;99.90
20349;DHT22;10332;50.208;18.988;2023-08-08T01:27:22;14.40;99.90
20349;DHT22;10332;50.208;18.988;2023-08-08T01:29:50;14.40;99.90
20349;DHT22;10332;50.208;18.988;2023-08-08T01:32:17;14.40;99.90
20349;DHT22;10332;50.208;18.988;2023-08-08T01:34:45;14.40;99.90
20349;DHT22;10332;50.208;18.988;2023-08-08T01:37:35;14.40;99.90
20349;DHT22;10332;50.208;18.988;2023-08-08T01:40:07;14.30;99.90
20349;DHT22;10332;50.208;18.988;2023-08-08T01:42:37;14.30;99.90
20349;DHT22;10332;50.208;18.988;2023-08-08T01:45:05;14.20;99.90
20349;DHT22;10332;50.208;18.988;2023-08-08T01:47:35;14.20;99.90
20349;DHT22;10332;50.208;18.988;2023-08-08T01:50:03;14.20;99.90
20349;DHT22;10332;50.208;18.988;2023-08-08T01:52:31;14.20;99.90
20349;DHT22;10332;50.208;18.988;2023-08-08T01:54:58;14.20;99.90
20349;DHT22;10332;50.208;18.988;2023-08-08T01:57:26;14.10;99.90
20349;DHT22;10332;50.208;18.988;2023-08-08T01:59:53;14.10;99.90
20349;DHT22;10332;50.208;18.988;2023-08-08T02:02:21;14.10;99.90
20349;DHT22;10332;50.208;18.988;2023-08-08T02:04:48;14.10;99.90
20349;DHT22;10332;50.208;18.988;2023-08-08T02:07:16;14.00;99.90
20349;DHT22;10332;50.208;18.988;2023-08-08T02:09:43;14.00;99.90
20349;DHT22;10332;50.208;18.988;2023-08-08T02:12:13;14.00;99.90
20349;DHT22;10332;50.208;18.988;2023-08-08T02:14:40;14.00;99.90
20349;DHT22;10332;50.208;18.988;2023-08-08T02:17:08;13.90;99.90
20349;DHT22;10332;50.208;18.988;2023-08-08T02:19:35;13.90;99.90
20349;DHT22;10332;50.208;18.988;2023-08-08T02:22:03;13.80;99.90
20349;DHT22;10332;50.208;18.988;2023-08-08T02:24:30;13.90;99.90
20349;DHT22;10332;50.208;18.988;2023-08-08T02:26:58;13.80;99.90
20349;DHT22;10332;50.208;18.988;2023-08-08T02:29:25;13.80;99.90
20349;DHT22;10332;50.208;18.988;2023-08-08T02:31:53;13.80;99.90
20349;DHT22;10332;50.208;18.988;2023-08-08T02:34:20;13.80;99.90
20349;DHT22;10332;50.208;18.988;2023-08-08T02:36:48;13.70;99.90
20349;DHT22;10332;50.208;18.988;2023-08-08T02:39:15;13.70;99.90
20349;DHT22;10332;50.208;18.988;2023-08-08T02:41:43;13.70;99.90
20349;DHT22;10332;50.208;18.988;2023-08-08T02:44:10;13.70;99.90
20349;DHT22;10332;50.208;18.988;2023-08-08T02:46:38;13.70;99.90
20349;DHT22;10332;50.208;18.988;2023-08-08T02:49:05;13.60;99.90
20349;DHT22;10332;50.208;18.988;2023-08-08T02:51:33;13.60;99.90
20349;DHT22;10332;50.208;18.988;2023-08-08T02:54:00;13.60;99.90
20349;DHT22;10332;50.208;18.988;2023-08-08T02:56:28;13.60;99.90
20349;DHT22;10332;50.208;18.988;2023-08-08T02:58:55;13.60;99.90
20349;DHT22;10332;50.208;18.988;2023-08-08T03:01:23;13.60;99.90
20349;DHT22;10332;50.208;18.988;2023-08-08T03:03:50;13.70;99.90
20349;DHT22;10332;50.208;18.988;2023-08-08T03:06:18;13.60;99.90
20349;DHT22;10332;50.208;18.988;2023-08-08T03:08:46;13.60;99.90
20349;DHT22;10332;50.208;18.988;2023-08-08T03:11:13;13.60;99.90
20349;DHT22;10332;50.208;18.988;2023-08-08T03:13:40;13.60;99.90
20349;DHT22;10332;50.208;18.988;2023-08-08T03:16:08;13.60;99.90
20349;DHT22;10332;50.208;18.988;2023-08-08T03:18:35;13.70;99.90
20349;DHT22;10332;50.208;18.988;2023-08-08T03:21:03;13.70;99.90
20349;DHT22;10332;50.208;18.988;2023-08-08T03:23:31;13.70;99.90
20349;DHT22;10332;50.208;18.988;2023-08-08T03:25:58;13.70;99.90
20349;DHT22;10332;50.208;18.988;2023-08-08T03:28:26;13.70;99.90
20349;DHT22;10332;50.208;18.988;2023-08-08T03:30:54;13.70;99.90
20349;DHT22;10332;50.208;18.988;2023-08-08T03:33:21;13.70;99.90
20349;DHT22;10332;50.208;18.988;2023-08-08T03:35:49;13.70;99.90
20349;DHT22;10332;50.208;18.988;2023-08-08T03:38:16;13.70;99.90
20349;DHT22;10332;50.208;18.988;2023-08-08T03:40:44;13.80;99.90
20349;DHT22;10332;50.208;18.988;2023-08-08T03:43:11;13.70;99.90
20349;DHT22;10332;50.208;18.988;2023-08-08T03:45:39;13.70;99.90
20349;DHT22;10332;50.208;18.988;2023-08-08T03:48:06;13.70;99.90
20349;DHT22;10332;50.208;18.988;2023-08-08T03:50:34;13.70;99.90
20349;DHT22;10332;50.208;18.988;2023-08-08T03:53:01;13.70;99.90
20349;DHT22;10332;50.208;18.988;2023-08-08T03:55:29;13.80;99.90
20349;DHT22;10332;50.208;18.988;2023-08-08T03:57:56;13.80;99.90
20349;DHT22;10332;50.208;18.988;2023-08-08T04:00:24;13.80;99.90
20349;DHT22;10332;50.208;18.988;2023-08-08T04:02:51;13.70;99.90
20349;DHT22;10332;50.208;18.988;2023-08-08T04:05:19;13.80;99.90
20349;DHT22;10332;50.208;18.988;2023-08-08T04:07:46;13.80;99.90
20349;DHT22;10332;50.208;18.988;2023-08-08T04:10:14;13.80;99.90
20349;DHT22;10332;50.208;18.988;2023-08-08T04:12:41;13.80;99.90
20349;DHT22;10332;50.208;18.988;2023-08-08T04:15:09;13.80;99.90
20349;DHT22;10332;50.208;18.988;2023-08-08T04:17:36;13.80;99.90
20349;DHT22;10332;50.208;18.988;2023-08-08T04:20:05;13.80;99.90
20349;DHT22;10332;50.208;18.988;2023-08-08T04:22:33;13.80;99.90
20349;DHT22;10332;50.208;18.988;2023-08-08T04:25:01;13.80;99.90
20349;DHT22;10332;50.208;18.988;2023-08-08T04:27:28;13.80;99.90
20349;DHT22;10332;50.208;18.988;2023-08-08T04:29:56;13.80;99.90
20349;DHT22;10332;50.208;18.988;2023-08-08T04:32:23;13.80;99.90
20349;DHT22;10332;50.208;18.988;2023-08-08T04:34:51;13.80;99.90
20349;DHT22;10332;50.208;18.988;2023-08-08T04:37:18;13.80;99.90
20349;DHT22;10332;50.208;18.988;2023-08-08T04:39:46;13.80;99.90
20349;DHT22;10332;50.208;18.988;2023-08-08T04:42:13;13.80;99.90
20349;DHT22;10332;50.208;18.988;2023-08-08T04:44:41;13.80;99.90
20349;DHT22;10332;50.208;18.988;2023-08-08T04:47:08;13.80;99.90
20349;DHT22;10332;50.208;18.988;2023-08-08T04:49:36;13.80;99.90
20349;DHT22;10332;50.208;18.988;2023-08-08T04:52:03;13.80;99.90
20349;DHT22;10332;50.208;18.988;2023-08-08T04:54:31;13.80;99.90
20349;DHT22;10332;50.208;18.988;2023-08-08T04:57:00;13.80;99.90
20349;DHT22;10332;50.208;18.988;2023-08-08T04:59:28;13.80;99.90
20349;DHT22;10332;50.208;18.988;2023-08-08T05:01:56;13.80;99.90
20349;DHT22;10332;50.208;18.988;2023-08-08T05:04:24;13.80;99.90
20349;DHT22;10332;50.208;18.988;2023-08-08T05:06:51;13.90;99.90
20349;DHT22;10332;50.208;18.988;2023-08-08T05:09:40;13.90;99.90
20349;DHT22;10332;50.208;18.988;2023-08-08T05:12:07;14.00;99.90
20349;DHT22;10332;50.208;18.988;2023-08-08T05:14:35;14.00;99.90
20349;DHT22;10332;50.208;18.988;2023-08-08T05:17:03;14.00;99.90
20349;DHT22;10332;50.208;18.988;2023-08-08T05:19:30;14.00;99.90
20349;DHT22;10332;50.208;18.988;2023-08-08T05:21:59;14.20;99.90
20349;DHT22;10332;50.208;18.988;2023-08-08T05:24:27;14.20;99.90
20349;DHT22;10332;50.208;18.988;2023-08-08T05:26:54;14.20;99.90
20349;DHT22;10332;50.208;18.988;2023-08-08T05:29:22;14.30;99.90
20349;DHT22;10332;50.208;18.988;2023-08-08T05:31:49;14.30;99.90
20349;DHT22;10332;50.208;18.988;2023-08-08T05:34:17;14.30;99.90
20349;DHT22;10332;50.208;18.988;2023-08-08T05:36:44;14.30;99.90
20349;DHT22;10332;50.208;18.988;2023-08-08T05:39:12;14.30;99.90
20349;DHT22;10332;50.208;18.988;2023-08-08T05:41:39;14.20;99.90
20349;DHT22;10332;50.208;18.988;2023-08-08T05:44:07;14.30;99.90
20349;DHT22;10332;50.208;18.988;2023-08-08T05:46:34;14.20;99.90
20349;DHT22;10332;50.208;18.988;2023-08-08T05:49:02;14.20;99.90
20349;DHT22;10332;50.208;18.988;2023-08-08T05:51:30;14.20;99.90
20349;DHT22;10332;50.208;18.988;2023-08-08T05:53:58;14.20;99.90
20349;DHT22;10332;50.208;18.988;2023-08-08T05:56:38;14.20;99.90
20349;DHT22;10332;50.208;18.988;2023-08-08T05:59:05;14.20;99.90
20349;DHT22;10332;50.208;18.988;2023-08-08T06:01:33;14.20;99.90
20349;DHT22;10332;50.208;18.988;2023-08-08T06:04:01;14.30;99.90
20349;DHT22;10332;50.208;18.988;2023-08-08T06:06:30;14.30;99.90
20349;DHT22;10332;50.208;18.988;2023-08-08T06:08:58;14.30;99.90
20349;DHT22;10332;50.208;18.988;2023-08-08T06:11:25;14.30;99.90
20349;DHT22;10332;50.208;18.988;2023-08-08T06:13:53;14.30;99.90
20349;DHT22;10332;50.208;18.988;2023-08-08T06:16:22;14.30;99.90
20349;DHT22;10332;50.208;18.988;2023-08-08T06:18:50;14.30;99.90
20349;DHT22;10332;50.208;18.988;2023-08-08T06:21:18;14.40;99.90
20349;DHT22;10332;50.208;18.988;2023-08-08T06:23:46;14.50;99.90
20349;DHT22;10332;50.208;18.988;2023-08-08T06:26:14;14.50;99.90
20349;DHT22;10332;50.208;18.988;2023-08-08T06:28:42;14.60;99.90
20349;DHT22;10332;50.208;18.988;2023-08-08T06:31:09;14.70;99.90
20349;DHT22;10332;50.208;18.988;2023-08-08T06:33:37;14.80;99.90
20349;DHT22;10332;50.208;18.988;2023-08-08T06:36:04;14.90;99.90
20349;DHT22;10332;50.208;18.988;2023-08-08T06:38:32;15.00;99.90
20349;DHT22;10332;50.208;18.988;2023-08-08T06:41:02;15.10;99.90
20349;DHT22;10332;50.208;18.988;2023-08-08T06:43:31;15.20;99.90
20349;DHT22;10332;50.208;18.988;2023-08-08T06:45:58;15.40;99.20
20349;DHT22;10332;50.208;18.988;2023-08-08T06:48:26;15.50;99.90
20349;DHT22;10332;50.208;18.988;2023-08-08T06:50:53;15.60;98.20
20349;DHT22;10332;50.208;18.988;2023-08-08T06:53:22;15.60;97.00
20349;DHT22;10332;50.208;18.988;2023-08-08T06:55:49;15.60;97.00
20349;DHT22;10332;50.208;18.988;2023-08-08T06:58:17;15.70;96.50
20349;DHT22;10332;50.208;18.988;2023-08-08T07:00:44;15.70;95.10
20349;DHT22;10332;50.208;18.988;2023-08-08T07:03:12;15.70;96.60
20349;DHT22;10332;50.208;18.988;2023-08-08T07:05:40;15.80;94.30
20349;DHT22;10332;50.208;18.988;2023-08-08T07:08:07;15.80;93.10
20349;DHT22;10332;50.208;18.988;2023-08-08T07:10:36;15.80;92.70
20349;DHT22;10332;50.208;18.988;2023-08-08T07:13:03;15.90;92.30
20349;DHT22;10332;50.208;18.988;2023-08-08T07:15:31;16.00;93.70
20349;DHT22;10332;50.208;18.988;2023-08-08T07:17:59;16.10;93.80
20349;DHT22;10332;50.208;18.988;2023-08-08T07:20:27;16.20;91.70
20349;DHT22;10332;50.208;18.988;2023-08-08T07:22:54;16.20;90.30
20349;DHT22;10332;50.208;18.988;2023-08-08T07:25:22;16.30;90.00
20349;DHT22;10332;50.208;18.988;2023-08-08T07:27:49;16.40;91.00
20349;DHT22;10332;50.208;18.988;2023-08-08T07:30:17;16.60;91.00
20349;DHT22;10332;50.208;18.988;2023-08-08T07:32:44;16.80;78.20
20349;DHT22;10332;50.208;18.988;2023-08-08T07:35:12;16.90;78.60
20349;DHT22;10332;50.208;18.988;2023-08-08T07:37:39;17.00;70.80
20349;DHT22;10332;50.208;18.988;2023-08-08T07:40:17;17.20;67.70
20349;DHT22;10332;50.208;18.988;2023-08-08T07:42:47;17.40;72.40
20349;DHT22;10332;50.208;18.988;2023-08-08T07:45:16;17.60;64.30
20349;DHT22;10332;50.208;18.988;2023-08-08T07:47:44;17.70;66.00
20349;DHT22;10332;50.208;18.988;2023-08-08T07:50:12;17.70;61.90
20349;DHT22;10332;50.208;18.988;2023-08-08T07:52:40;17.80;52.40
20349;DHT22;10332;50.208;18.988;2023-08-08T07:55:08;17.70;55.80
20349;DHT22;10332;50.208;18.988;2023-08-08T07:57:35;17.80;52.00
20349;DHT22;10332;50.208;18.988;2023-08-08T08:00:04;17.90;49.00
20349;DHT22;10332;50.208;18.988;2023-08-08T08:02:42;18.00;49.40
20349;DHT22;10332;50.208;18.988;2023-08-08T08:05:11;18.10;50.10
20349;DHT22;10332;50.208;18.988;2023-08-08T08:07:39;17.90;52.20
20349;DHT22;10332;50.208;18.988;2023-08-08T08:10:09;17.70;57.60
20349;DHT22;10332;50.208;18.988;2023-08-08T08:12:41;17.50;56.90
20349;DHT22;10332;50.208;18.988;2023-08-08T08:15:10;17.40;60.00
20349;DHT22;10332;50.208;18.988;2023-08-08T08:17:37;17.50;58.20
20349;DHT22;10332;50.208;18.988;2023-08-08T08:20:06;17.60;50.50
20349;DHT22;10332;50.208;18.988;2023-08-08T08:22:38;17.70;54.00
20349;DHT22;10332;50.208;18.988;2023-08-08T08:25:06;17.80;52.50
20349;DHT22;10332;50.208;18.988;2023-08-08T08:27:38;17.90;51.10
20349;DHT22;10332;50.208;18.988;2023-08-08T08:30:07;17.90;47.00
20349;DHT22;10332;50.208;18.988;2023-08-08T08:32:39;18.00;44.70
20349;DHT22;10332;50.208;18.988;2023-08-08T08:35:08;18.20;46.80
20349;DHT22;10332;50.208;18.988;2023-08-08T08:37:36;18.30;44.00
20349;DHT22;10332;50.208;18.988;2023-08-08T08:40:04;18.50;36.20
20349;DHT22;10332;50.208;18.988;2023-08-08T08:42:32;18.70;41.30
20349;DHT22;10332;50.208;18.988;2023-08-08T08:45:03;18.70;37.30
20349;DHT22;10332;50.208;18.988;2023-08-08T08:47:36;18.70;34.10
20349;DHT22;10332;50.208;18.988;2023-08-08T08:50:05;18.70;37.60
20349;DHT22;10332;50.208;18.988;2023-08-08T08:52:34;18.70;33.90
20349;DHT22;10332;50.208;18.988;2023-08-08T08:55:02;18.70;31.00
20349;DHT22;10332;50.208;18.988;2023-08-08T08:57:31;18.80;34.30
20349;DHT22;10332;50.208;18.988;2023-08-08T08:59:59;19.00;35.30
20349;DHT22;10332;50.208;18.988;2023-08-08T09:02:27;19.00;34.10
20349;DHT22;10332;50.208;18.988;2023-08-08T09:04:55;19.40;29.50
20349;DHT22;10332;50.208;18.988;2023-08-08T09:07:24;19.60;27.40
20349;DHT22;10332;50.208;18.988;2023-08-08T09:09:54;19.50;23.40
20349;DHT22;10332;50.208;18.988;2023-08-08T09:12:22;19.10;26.60
20349;DHT22;10332;50.208;18.988;2023-08-08T09:14:58;18.90;25.80
20349;DHT22;10332;50.208;18.988;2023-08-08T09:17:26;18.60;26.50
20349;DHT22;10332;50.208;18.988;2023-08-08T09:20:14;18.50;28.90
20349;DHT22;10332;50.208;18.988;2023-08-08T09:22:43;18.70;30.80
20349;DHT22;10332;50.208;18.988;2023-08-08T09:25:12;19.00;28.00
20349;DHT22;10332;50.208;18.988;2023-08-08T09:27:40;19.10;25.20
20349;DHT22;10332;50.208;18.988;2023-08-08T09:30:11;18.90;27.10
20349;DHT22;10332;50.208;18.988;2023-08-08T09:32:43;18.70;31.20
20349;DHT22;10332;50.208;18.988;2023-08-08T09:35:12;18.40;35.50
20349;DHT22;10332;50.208;18.988;2023-08-08T09:37:40;18.30;39.90
20349;DHT22;10332;50.208;18.988;2023-08-08T09:40:08;18.20;40.00
20349;DHT22;10332;50.208;18.988;2023-08-08T09:42:40;18.10;35.50
20349;DHT22;10332;50.208;18.988;2023-08-08T09:45:09;21.00;23.40
20349;DHT22;10332;50.208;18.988;2023-08-08T09:47:38;21.80;8.50
20349;DHT22;10332;50.208;18.988;2023-08-08T09:50:06;22.30;1.00
20349;DHT22;10332;50.208;18.988;2023-08-08T09:52:35;22.20;1.00
20349;DHT22;10332;50.208;18.988;2023-08-08T09:55:06;21.20;1.00
20349;DHT22;10332;50.208;18.988;2023-08-08T09:57:35;20.70;1.00
20349;DHT22;10332;50.208;18.988;2023-08-08T10:00:08;20.40;1.00
20349;DHT22;10332;50.208;18.988;2023-08-08T10:02:44;20.20;6.00
20349;DHT22;10332;50.208;18.988;2023-08-08T10:05:14;19.90;1.00
20349;DHT22;10332;50.208;18.988;2023-08-08T10:07:43;19.80;3.90
20349;DHT22;10332;50.208;18.988;2023-08-08T10:10:11;19.80;4.30
20349;DHT22;10332;50.208;18.988;2023-08-08T10:12:42;19.70;5.00
20349;DHT22;10332;50.208;18.988;2023-08-08T10:15:10;19.50;3.10
20349;DHT22;10332;50.208;18.988;2023-08-08T10:17:39;19.40;4.20
20349;DHT22;10332;50.208;18.988;2023-08-08T10:20:11;20.90;6.30
20349;DHT22;10332;50.208;18.988;2023-08-08T10:22:43;25.60;1.00
20349;DHT22;10332;50.208;18.988;2023-08-08T10:25:24;28.30;1.00
20349;DHT22;10332;50.208;18.988;2023-08-08T10:28:10;30.50;1.00
20349;DHT22;10332;50.208;18.988;2023-08-08T10:30:58;31.20;1.00
20349;DHT22;10332;50.208;18.988;2023-08-08T10:33:40;30.00;1.00
20349;DHT22;10332;50.208;18.988;2023-08-08T10:36:10;30.70;1.00
20349;DHT22;10332;50.208;18.988;2023-08-08T10:38:48;30.00;1.00
20349;DHT22;10332;50.208;18.988;2023-08-08T10:41:22;30.30;1.00
20349;DHT22;10332;50.208;18.988;2023-08-08T10:43:56;29.60;1.00
20349;DHT22;10332;50.208;18.988;2023-08-08T10:46:31;28.40;1.00
20349;DHT22;10332;50.208;18.988;2023-08-08T10:49:01;27.70;1.00
20349;DHT22;10332;50.208;18.988;2023-08-08T10:51:40;26.80;1.00
20349;DHT22;10332;50.208;18.988;2023-08-08T10:54:23;27.50;1.00
20349;DHT22;10332;50.208;18.988;2023-08-08T10:56:56;28.40;1.00
20349;DHT22;10332;50.208;18.988;2023-08-08T10:59:37;27.70;1.00
20349;DHT22;10332;50.208;18.988;2023-08-08T11:02:05;26.90;1.00
20349;DHT22;10332;50.208;18.988;2023-08-08T11:04:35;25.70;1.00
20349;DHT22;10332;50.208;18.988;2023-08-08T11:07:03;24.50;1.00
20349;DHT22;10332;50.208;18.988;2023-08-08T11:09:31;23.80;1.00
20349;DHT22;10332;50.208;18.988;2023-08-08T11:11:58;22.50;1.00
20349;DHT22;10332;50.208;18.988;2023-08-08T11:14:27;22.10;1.00
20349;DHT22;10332;50.208;18.988;2023-08-08T11:16:54;21.60;1.00
20349;DHT22;10332;50.208;18.988;2023-08-08T11:19:22;21.20;1.00
20349;DHT22;10332;50.208;18.988;2023-08-08T11:21:50;20.80;1.00
20349;DHT22;10332;50.208;18.988;2023-08-08T11:24:18;20.70;1.00
20349;DHT22;10332;50.208;18.988;2023-08-08T11:26:45;20.90;1.00
20349;DHT22;10332;50.208;18.988;2023-08-08T11:29:15;21.00;1.00
20349;DHT22;10332;50.208;18.988;2023-08-08T11:31:42;21.10;1.00
20349;DHT22;10332;50.208;18.988;2023-08-08T11:34:10;21.10;1.00
20349;DHT22;10332;50.208;18.988;2023-08-08T11:36:39;21.00;1.00
20349;DHT22;10332;50.208;18.988;2023-08-08T11:39:07;20.80;1.00
20349;DHT22;10332;50.208;18.988;2023-08-08T11:41:37;20.90;1.00
20349;DHT22;10332;50.208;18.988;2023-08-08T11:44:07;20.70;1.00
20349;DHT22;10332;50.208;18.988;2023-08-08T11:46:45;20.70;1.00
20349;DHT22;10332;50.208;18.988;2023-08-08T11:49:17;20.70;1.00
20349;DHT22;10332;50.208;18.988;2023-08-08T11:51:45;20.90;1.00
20349;DHT22;10332;50.208;18.988;2023-08-08T11:54:13;21.10;1.00
20349;DHT22;10332;50.208;18.988;2023-08-08T11:56:41;21.10;1.00
20349;DHT22;10332;50.208;18.988;2023-08-08T11:59:09;21.10;1.00
20349;DHT22;10332;50.208;18.988;2023-08-08T12:01:37;21.30;1.00
20349;DHT22;10332;50.208;18.988;2023-08-08T12:04:07;21.20;1.00
20349;DHT22;10332;50.208;18.988;2023-08-08T12:06:37;21.10;1.00
20349;DHT22;10332;50.208;18.988;2023-08-08T12:09:12;21.20;1.00
20349;DHT22;10332;50.208;18.988;2023-08-08T12:11:40;21.30;1.00
20349;DHT22;10332;50.208;18.988;2023-08-08T12:14:08;21.10;1.00
20349;DHT22;10332;50.208;18.988;2023-08-08T12:16:42;21.00;1.00
20349;DHT22;10332;50.208;18.988;2023-08-08T12:19:11;20.90;1.00
20349;DHT22;10332;50.208;18.988;2023-08-08T12:21:39;21.10;1.00
20349;DHT22;10332;50.208;18.988;2023-08-08T12:24:07;21.30;1.00
20349;DHT22;10332;50.208;18.988;2023-08-08T12:26:35;21.40;1.00
20349;DHT22;10332;50.208;18.988;2023-08-08T12:29:03;21.40;1.00
20349;DHT22;10332;50.208;18.988;2023-08-08T12:31:30;21.40;1.00
20349;DHT22;10332;50.208;18.988;2023-08-08T12:33:58;21.50;1.00
20349;DHT22;10332;50.208;18.988;2023-08-08T12:36:25;21.70;1.00
20349;DHT22;10332;50.208;18.988;2023-08-08T12:38:53;21.60;1.00
20349;DHT22;10332;50.208;18.988;2023-08-08T12:41:21;21.40;1.00
20349;DHT22;10332;50.208;18.988;2023-08-08T12:43:49;21.40;1.00
20349;DHT22;10332;50.208;18.988;2023-08-08T12:46:17;21.40;1.00
20349;DHT22;10332;50.208;18.988;2023-08-08T12:48:44;21.40;1.00
20349;DHT22;10332;50.208;18.988;2023-08-08T12:51:12;21.50;1.00
20349;DHT22;10332;50.208;18.988;2023-08-08T12:53:40;21.50;1.00
20349;DHT22;10332;50.208;18.988;2023-08-08T12:56:07;21.30;1.00
20349;DHT22;10332;50.208;18.988;2023-08-08T12:58:35;21.10;1.00
20349;DHT22;10332;50.208;18.988;2023-08-08T13:01:02;20.80;1.00
20349;DHT22;10332;50.208;18.988;2023-08-08T13:03:30;20.60;1.00
20349;DHT22;10332;50.208;18.988;2023-08-08T13:06:00;20.60;1.00
20349;DHT22;10332;50.208;18.988;2023-08-08T13:08:28;20.60;1.00
20349;DHT22;10332;50.208;18.988;2023-08-08T13:10:58;20.70;1.00
20349;DHT22;10332;50.208;18.988;2023-08-08T13:13:25;20.70;1.00
20349;DHT22;10332;50.208;18.988;2023-08-08T13:15:53;20.90;1.00
20349;DHT22;10332;50.208;18.988;2023-08-08T13:18:20;21.00;1.00
20349;DHT22;10332;50.208;18.988;2023-08-08T13:20:48;21.20;1.00
20349;DHT22;10332;50.208;18.988;2023-08-08T13:23:16;21.30;1.00
20349;DHT22;10332;50.208;18.988;2023-08-08T13:25:43;21.40;1.00
20349;DHT22;10332;50.208;18.988;2023-08-08T13:28:11;21.40;1.00
20349;DHT22;10332;50.208;18.988;2023-08-08T13:30:38;21.40;1.00
20349;DHT22;10332;50.208;18.988;2023-08-08T13:33:07;21.40;1.00
20349;DHT22;10332;50.208;18.988;2023-08-08T13:35:34;21.40;1.00
20349;DHT22;10332;50.208;18.988;2023-08-08T13:38:02;21.40;1.00
20349;DHT22;10332;50.208;18.988;2023-08-08T13:40:29;21.20;1.00
20349;DHT22;10332;50.208;18.988;2023-08-08T13:42:57;21.20;1.00
20349;DHT22;10332;50.208;18.988;2023-08-08T13:45:24;21.20;1.00
20349;DHT22;10332;50.208;18.988;2023-08-08T13:47:52;21.40;1.00
20349;DHT22;10332;50.208;18.988;2023-08-08T13:50:19;21.40;1.00
20349;DHT22;10332;50.208;18.988;2023-08-08T13:52:47;21.50;1.00
20349;DHT22;10332;50.208;18.988;2023-08-08T13:55:14;21.50;1.00
20349;DHT22;10332;50.208;18.988;2023-08-08T13:57:42;21.50;1.00
20349;DHT22;10332;50.208;18.988;2023-08-08T14:00:10;21.50;1.00
20349;DHT22;10332;50.208;18.988;2023-08-08T14:02:40;21.50;1.00
20349;DHT22;10332;50.208;18.988;2023-08-08T14:05:08;21.40;1.00
20349;DHT22;10332;50.208;18.988;2023-08-08T14:07:35;21.40;1.00
20349;DHT22;10332;50.208;18.988;2023-08-08T14:10:03;21.50;1.00
20349;DHT22;10332;50.208;18.988;2023-08-08T14:12:31;21.60;1.00
20349;DHT22;10332;50.208;18.988;2023-08-08T14:14:59;21.90;1.00
20349;DHT22;10332;50.208;18.988;2023-08-08T14:17:26;22.00;1.00
20349;DHT22;10332;50.208;18.988;2023-08-08T14:19:54;21.90;1.00
20349;DHT22;10332;50.208;18.988;2023-08-08T14:22:21;22.00;1.00
20349;DHT22;10332;50.208;18.988;2023-08-08T14:24:49;21.90;1.00
20349;DHT22;10332;50.208;18.988;2023-08-08T14:27:16;21.80;1.00
20349;DHT22;10332;50.208;18.988;2023-08-08T14:29:43;21.80;1.00
20349;DHT22;10332;50.208;18.988;2023-08-08T14:32:11;21.80;1.00
20349;DHT22;10332;50.208;18.988;2023-08-08T14:34:39;21.70;1.00
20349;DHT22;10332;50.208;18.988;2023-08-08T14:37:06;21.50;1.00
20349;DHT22;10332;50.208;18.988;2023-08-08T14:39:34;21.50;1.00
20349;DHT22;10332;50.208;18.988;2023-08-08T14:42:02;21.40;1.00
20349;DHT22;10332;50.208;18.988;2023-08-08T14:44:31;21.30;1.00
20349;DHT22;10332;50.208;18.988;2023-08-08T14:46:58;21.20;1.00
20349;DHT22;10332;50.208;18.988;2023-08-08T14:49:26;21.10;1.00
20349;DHT22;10332;50.208;18.988;2023-08-08T14:51:54;20.90;1.00
20349;DHT22;10332;50.208;18.988;2023-08-08T14:54:22;20.80;1.00
20349;DHT22;10332;50.208;18.988;2023-08-08T14:56:51;20.80;1.00
20349;DHT22;10332;50.208;18.988;2023-08-08T14:59:19;20.90;1.00
20349;DHT22;10332;50.208;18.988;2023-08-08T15:01:46;21.00;1.00
20349;DHT22;10332;50.208;18.988;2023-08-08T15:04:14;21.00;1.00
20349;DHT22;10332;50.208;18.988;2023-08-08T15:06:41;21.10;1.00
20349;DHT22;10332;50.208;18.988;2023-08-08T15:09:09;21.10;1.00
20349;DHT22;10332;50.208;18.988;2023-08-08T15:11:36;21.00;1.00
20349;DHT22;10332;50.208;18.988;2023-08-08T15:14:04;20.90;1.00
20349;DHT22;10332;50.208;18.988;2023-08-08T15:16:32;20.80;1.00
20349;DHT22;10332;50.208;18.988;2023-08-08T15:19:01;20.70;1.00
20349;DHT22;10332;50.208;18.988;2023-08-08T15:21:28;20.40;1.00
20349;DHT22;10332;50.208;18.988;2023-08-08T15:23:56;20.20;1.00
20349;DHT22;10332;50.208;18.988;2023-08-08T15:26:23;19.80;1.00
20349;DHT22;10332;50.208;18.988;2023-08-08T15:28:51;19.60;1.60
20349;DHT22;10332;50.208;18.988;2023-08-08T15:31:19;19.50;7.70
20349;DHT22;10332;50.208;18.988;2023-08-08T15:33:46;19.40;11.00